Time;durP1;ratioP1;P1;durP2;ratioP2;P2;SDS_P1;SDS_P2;PMS_P1;PMS_P2;Temp;Humidity;BMP_temperature;BMP_pressure;BME280_temperature;BME280_humidity;BME280_pressure;Samples;Min_cycle;Max_cycle;Signal;HPM_P1;HPM_P2
2021/01/19 00:02:09;;;;;;;6.85;3.53;;;2.20;63.30;;;;;;5017410;28;20529;-74
2021/01/19 00:04:35;;;;;;;6.50;4.00;;;2.20;63.30;;;;;;5017277;28;20399;-74
2021/01/19 00:07:01;;;;;;;5.13;3.20;;;2.10;63.60;;;;;;5017537;28;20402;-74
2021/01/19 00:09:28;;;;;;;6.20;3.30;;;2.00;64.30;;;;;;5004962;28;20399;-74
2021/01/19 00:11:53;;;;;;;5.72;3.00;;;2.00;64.30;;;;;;5032345;28;20486;-74
2021/01/19 00:14:19;;;;;;;4.97;3.47;;;2.10;63.20;;;;;;5034912;28;20827;-74
2021/01/19 00:16:45;;;;;;;7.82;3.60;;;2.10;63.70;;;;;;5017224;28;20486;-74
2021/01/19 00:19:11;;;;;;;5.15;3.42;;;2.00;64.50;;;;;;5017301;28;20415;-75
2021/01/19 00:21:37;;;;;;;5.20;3.17;;;2.00;63.20;;;;;;5016940;28;20516;-74
2021/01/19 00:24:03;;;;;;;6.22;3.13;;;2.10;62.80;;;;;;5017169;28;20399;-75
2021/01/19 00:26:30;;;;;;;4.55;3.25;;;2.10;63.30;;;;;;5013555;28;20426;-74
2021/01/19 00:28:56;;;;;;;4.85;3.13;;;2.10;63.70;;;;;;5016921;28;20506;-74
2021/01/19 00:31:22;;;;;;;5.40;2.88;;;2.10;62.70;;;;;;5017238;28;20427;-74
2021/01/19 00:33:48;;;;;;;5.45;2.97;;;2.00;63.10;;;;;;5017101;28;20910;-74
2021/01/19 00:36:14;;;;;;;5.97;3.30;;;1.90;63.10;;;;;;5002981;28;20925;-74
2021/01/19 00:38:40;;;;;;;4.55;3.28;;;1.70;63.50;;;;;;5034808;28;20410;-74
2021/01/19 00:41:06;;;;;;;5.15;3.10;;;1.70;63.60;;;;;;5016783;28;20925;-74
2021/01/19 00:43:32;;;;;;;5.17;3.30;;;1.70;62.90;;;;;;5013703;28;20404;-75
2021/01/19 00:45:58;;;;;;;7.03;3.60;;;1.70;63.30;;;;;;5016716;28;20411;-74
2021/01/19 00:48:25;;;;;;;5.32;3.30;;;1.70;63.10;;;;;;5016841;28;20426;-74
2021/01/19 00:50:50;;;;;;;5.65;3.65;;;1.70;63.00;;;;;;5016758;28;20407;-74
2021/01/19 00:53:16;;;;;;;10.52;6.40;;;1.60;63.80;;;;;;5034187;28;20494;-74
2021/01/19 00:55:42;;;;;;;10.82;6.97;;;1.50;67.40;;;;;;5016723;28;20421;-75
2021/01/19 00:58:08;;;;;;;10.10;7.18;;;1.30;67.20;;;;;;5016300;28;20419;-74
2021/01/19 01:00:35;;;;;;;26.03;16.97;;;1.30;68.30;;;;;;5016662;28;20507;-74
2021/01/19 01:03:01;;;;;;;22.15;16.30;;;1.30;74.30;;;;;;5016036;28;20795;-75
2021/01/19 01:05:27;;;;;;;33.47;24.03;;;1.20;75.30;;;;;;5013284;28;20450;-74
2021/01/19 01:07:54;;;;;;;32.90;23.08;;;1.10;83.70;;;;;;5016157;28;20421;-76
2021/01/19 01:10:22;;;;;;;31.80;23.27;;;0.90;88.70;;;;;;5009011;28;20413;-74
2021/01/19 01:12:48;;;;;;;31.60;23.33;;;0.80;90.20;;;;;;5012441;28;20399;-75
2021/01/19 01:15:18;;;;;;;30.38;21.92;;;0.70;91.10;;;;;;5032480;28;20409;-74
2021/01/19 01:17:44;;;;;;;32.70;23.42;;;0.70;91.20;;;;;;5015996;28;20407;-74
2021/01/19 01:20:11;;;;;;;24.23;17.30;;;0.80;91.80;;;;;;5016024;28;20983;-74
2021/01/19 01:22:39;;;;;;;25.98;19.15;;;0.80;88.90;;;;;;5032324;28;20482;-75
2021/01/19 01:25:06;;;;;;;28.23;20.08;;;0.80;89.50;;;;;;5015851;28;20403;-76
2021/01/19 01:27:32;;;;;;;24.38;18.02;;;0.80;89.80;;;;;;5015940;28;20887;-74
2021/01/19 01:30:02;;;;;;;24.40;18.95;;;0.70;89.60;;;;;;5015985;28;20482;-75
2021/01/19 01:32:28;;;;;;;23.55;17.77;;;0.60;89.50;;;;;;5012502;28;20403;-74
2021/01/19 01:34:54;;;;;;;27.00;20.33;;;0.70;88.80;;;;;;5032483;28;20417;-74
2021/01/19 01:37:20;;;;;;;33.33;25.05;;;0.70;88.90;;;;;;5015606;28;20866;-75
2021/01/19 01:39:46;;;;;;;32.45;24.23;;;0.80;90.40;;;;;;5015738;28;20442;-74
2021/01/19 01:42:20;;;;;;;35.03;25.47;;;;;;;;;;5003356;28;20447;-74
2021/01/19 01:44:46;;;;;;;31.60;23.70;;;;;;;;;;5012047;28;20828;-74
2021/01/19 01:47:16;;;;;;;29.27;20.63;;;;;;;;;;5005266;28;20401;-74
2021/01/19 01:49:42;;;;;;;26.58;19.55;;;;;;;;;;5015523;28;20405;-74
2021/01/19 01:52:09;;;;;;;28.73;20.30;;;;;;;;;;5015579;28;20754;-74
2021/01/19 01:54:36;;;;;;;33.80;24.05;;;;;;;;;;5026071;28;20450;-74
2021/01/19 01:57:02;;;;;;;34.33;24.00;;;;;;;;;;5031952;28;20406;-74
2021/01/19 01:59:30;;;;;;;31.40;22.55;;;;;;;;;;5014980;28;20419;-74
2021/01/19 02:02:06;;;;;;;34.25;23.98;;;;;;;;;;5013508;23;20446;-72
2021/01/19 02:04:32;;;;;;;35.22;25.63;;;;;;;;;;5021794;28;20431;-72
2021/01/19 02:06:59;;;;;;;34.40;24.70;;;;;;;;;;5004794;28;20434;-72
2021/01/19 02:09:27;;;;;;;33.40;23.40;;;;;;;;;;5007043;28;20405;-72
2021/01/19 02:11:54;;;;;;;33.72;24.08;;;;;;;;;;5021499;28;20903;-72
2021/01/19 02:14:27;;;;;;;35.35;25.83;;;0.70;90.70;;;;;;4995408;28;20503;-72
2021/01/19 02:17:00;;;;;;;37.65;27.00;;;;;;;;;;5003126;28;20888;-72
2021/01/19 02:19:47;;;;;;;36.97;26.13;;;;;;;;;;4995424;28;20497;-72
2021/01/19 02:22:24;;;;;;;36.13;26.48;;;;;;;;;;4995901;28;20408;-72
2021/01/19 02:25:02;;;;;;;33.80;25.42;;;;;;;;;;5029781;28;20399;-72
2021/01/19 02:27:45;;;;;;;35.80;24.90;;;;;;;;;;4997648;28;20437;-72
2021/01/19 02:30:26;;;;;;;34.08;23.73;;;;;;;;;;5006744;28;20809;-72
2021/01/19 02:33:05;;;;;;;35.90;25.15;;;;;;;;;;5012604;28;20397;-72
2021/01/19 02:35:35;;;;;;;34.43;24.80;;;;;;;;;;5011350;28;20445;-72
2021/01/19 02:38:05;;;;;;;33.22;24.52;;;;;;;;;;5023841;28;20400;-72
2021/01/19 02:40:32;;;;;;;31.92;22.83;;;;;;;;;;5025570;28;20406;-72
2021/01/19 02:43:08;;;;;;;32.28;23.23;;;;;;;;;;5010143;28;20739;-72
2021/01/19 02:45:34;;;;;;;33.97;24.80;;;;;;;;;;5017812;28;20434;-72
2021/01/19 02:48:00;;;;;;;33.83;24.63;;;;;;;;;;5012624;28;20413;-72
2021/01/19 02:50:27;;;;;;;31.38;23.75;;;-1.10;97.10;;;;;;5021995;28;20404;-72
2021/01/19 02:52:54;;;;;;;36.07;25.53;;;;;;;;;;5028445;28;20413;-72
2021/01/19 02:55:20;;;;;;;33.03;24.38;;;;;;;;;;5012504;28;20488;-72
2021/01/19 02:57:58;;;;;;;34.28;24.30;;;;;;;;;;5012928;28;20435;-72
2021/01/19 03:00:28;;;;;;;34.20;24.90;;;;;;;;;;5032227;28;20422;-72
2021/01/19 03:02:55;;;;;;;31.83;24.63;;;;;;;;;;5026979;28;20437;-72
2021/01/19 03:05:23;;;;;;;37.10;26.35;;;;;;;;;;5011250;28;20474;-72
2021/01/19 03:07:51;;;;;;;34.30;25.85;;;;;;;;;;5027775;28;20402;-72
2021/01/19 03:10:17;;;;;;;32.65;24.33;;;;;;;;;;5017493;28;20437;-72
2021/01/19 03:12:45;;;;;;;32.33;24.70;;;;;;;;;;5018848;28;20413;-72
2021/01/19 03:15:12;;;;;;;35.50;25.45;;;;;;;;;;5031858;28;20399;-72
2021/01/19 03:17:40;;;;;;;34.60;24.98;;;;;;;;;;5032175;28;20398;-72
2021/01/19 03:20:06;;;;;;;36.50;25.77;;;;;;;;;;5030047;28;20415;-72
2021/01/19 03:22:33;;;;;;;34.40;26.00;;;;;;;;;;5014277;28;20411;-72
2021/01/19 03:25:00;;;;;;;34.88;25.13;;;;;;;;;;5017199;28;20404;-72
2021/01/19 03:27:26;;;;;;;32.33;24.58;;;;;;;;;;5025994;28;20428;-72
2021/01/19 03:29:52;;;;;;;35.78;25.83;;;;;;;;;;4998799;28;20432;-72
2021/01/19 03:32:18;;;;;;;35.00;25.85;;;;;;;;;;5013017;28;20406;-72
2021/01/19 03:34:44;;;;;;;32.80;23.90;;;;;;;;;;4997617;28;20412;-72
2021/01/19 03:37:10;;;;;;;32.53;23.15;;;;;;;;;;5016229;28;20894;-72
2021/01/19 03:39:36;;;;;;;31.77;23.48;;;;;;;;;;5017102;28;20425;-72
2021/01/19 03:42:03;;;;;;;35.22;24.48;;;;;;;;;;5015759;28;20443;-72
2021/01/19 03:44:30;;;;;;;33.10;24.20;;;;;;;;;;5021706;28;20480;-72
2021/01/19 03:46:56;;;;;;;33.95;24.73;;;;;;;;;;5035971;28;20407;-72
2021/01/19 03:49:22;;;;;;;35.78;25.42;;;;;;;;;;5021579;28;20795;-72
2021/01/19 03:51:48;;;;;;;32.17;25.10;;;;;;;;;;5010560;28;20911;-72
2021/01/19 03:54:14;;;;;;;33.40;25.33;;;;;;;;;;5015961;28;20451;-72
2021/01/19 03:56:41;;;;;;;30.42;23.55;;;;;;;;;;5010315;28;20401;-72
2021/01/19 03:59:09;;;;;;;33.58;25.35;;;;;;;;;;4996312;28;20414;-72
2021/01/19 04:01:39;;;;;;;34.72;25.02;;;;;;;;;;4993397;28;20452;-72
2021/01/19 04:04:05;;;;;;;35.63;25.80;;;;;;;;;;5016140;28;20401;-72
2021/01/19 04:06:31;;;;;;;33.65;25.17;;;;;;;;;;4999055;28;20441;-72
2021/01/19 04:08:57;;;;;;;34.58;24.75;;;;;;;;;;4998072;28;20398;-72
2021/01/19 04:11:23;;;;;;;33.83;24.85;;;;;;;;;;5015528;28;20404;-72
2021/01/19 04:13:50;;;;;;;34.03;23.85;;;;;;;;;;4991186;28;20403;-72
2021/01/19 04:16:17;;;;;;;31.30;23.17;;;;;;;;;;4991141;28;20405;-72
2021/01/19 04:18:43;;;;;;;32.25;23.15;;;;;;;;;;5010164;28;20461;-72
2021/01/19 04:21:09;;;;;;;32.88;23.02;;;;;;;;;;5006779;28;20500;-72
2021/01/19 04:23:35;;;;;;;33.00;24.48;;;;;;;;;;5001295;28;20408;-72
2021/01/19 04:26:01;;;;;;;32.53;23.98;;;;;;;;;;5010752;28;20421;-73
2021/01/19 04:28:27;;;;;;;33.33;24.60;;;;;;;;;;4986573;28;20920;-72
2021/01/19 04:30:53;;;;;;;33.85;24.15;;;;;;;;;;5012818;28;20432;-72
2021/01/19 04:33:20;;;;;;;33.58;23.85;;;;;;;;;;5015418;28;20401;-72
2021/01/19 04:35:47;;;;;;;37.80;27.25;;;;;;;;;;4997312;28;20413;-72
2021/01/19 04:38:13;;;;;;;32.25;25.23;;;;;;;;;;4997486;28;20396;-72
2021/01/19 04:40:39;;;;;;;32.78;24.30;;;;;;;;;;5007258;28;20397;-72
2021/01/19 04:43:06;;;;;;;36.60;26.47;;;;;;;;;;5015129;28;20494;-72
2021/01/19 04:45:33;;;;;;;35.83;26.02;;;;;;;;;;5014749;28;20496;-72
2021/01/19 04:47:59;;;;;;;38.17;27.10;;;;;;;;;;4997041;28;20409;-72
2021/01/19 04:50:26;;;;;;;34.67;26.23;;;;;;;;;;4997308;28;20463;-72
2021/01/19 04:52:54;;;;;;;37.88;27.45;;;;;;;;;;5014586;28;20455;-72
2021/01/19 04:55:22;;;;;;;35.60;25.63;;;;;;;;;;4997232;28;20926;-72
2021/01/19 04:57:53;;;;;;;34.53;24.90;;;;;;;;;;5015128;28;20396;-72
2021/01/19 05:00:27;;;;;;;38.92;28.13;;;;;;;;;;5007004;28;20423;-72
2021/01/19 05:03:12;;;;;;;39.42;27.45;;;;;;;;;;4988128;28;20805;-72
2021/01/19 05:05:55;;;;;;;32.58;24.35;;;;;;;;;;5014604;28;20439;-72
2021/01/19 05:08:26;;;;;;;40.35;28.13;;;;;;;;;;5006468;28;20760;-72
2021/01/19 05:10:57;;;;;;;36.78;26.55;;;;;;;;;;5004307;28;20489;-72
2021/01/19 05:13:42;;;;;;;36.17;26.10;;;;;;;;;;5011692;28;20485;-73
2021/01/19 05:16:13;;;;;;;35.00;25.20;;;;;;;;;;5014582;28;20416;-72
2021/01/19 05:18:41;;;;;;;36.83;26.92;;;;;;;;;;5014017;28;20428;-72
2021/01/19 05:21:08;;;;;;;37.60;25.98;;;;;;;;;;4996766;28;20959;-72
2021/01/19 05:23:34;;;;;;;34.72;25.50;;;;;;;;;;5013988;28;20405;-72
2021/01/19 05:26:01;;;;;;;35.42;25.52;;;;;;;;;;5007605;28;20886;-72
2021/01/19 05:28:29;;;;;;;34.80;25.98;;;;;;;;;;5014675;28;20397;-73
2021/01/19 05:30:55;;;;;;;36.38;25.50;;;;;;;;;;5009981;28;20429;-72
2021/01/19 05:33:22;;;;;;;33.65;25.33;;;;;;;;;;5014138;28;20405;-72
2021/01/19 05:35:48;;;;;;;37.13;26.17;;;;;;;;;;5001582;28;20402;-73
2021/01/19 05:38:15;;;;;;;33.80;25.10;;;;;;;;;;4996369;28;20958;-73
2021/01/19 05:40:44;;;;;;;38.67;27.50;;;;;;;;;;5013954;28;20405;-72
2021/01/19 05:43:11;;;;;;;33.22;24.58;;;;;;;;;;4989902;28;20826;-72
2021/01/19 05:45:37;;;;;;;34.77;24.10;;;;;;;;;;4988911;28;20408;-72
2021/01/19 05:48:13;;;;;;;33.17;25.02;;;;;;;;;;5000421;28;20908;-72
2021/01/19 05:50:40;;;;;;;35.38;24.42;;;;;;;;;;5005148;28;20403;-72
2021/01/19 05:53:17;;;;;;;32.27;24.27;;;;;;;;;;5010686;28;20494;-72
2021/01/19 05:55:45;;;;;;;35.85;25.23;;;;;;;;;;4995059;28;20410;-72
2021/01/19 05:58:15;;;;;;;32.03;24.38;;;;;;;;;;5007742;28;20398;-73
2021/01/19 06:00:41;;;;;;;33.70;23.80;;;;;;;;;;5003523;28;20756;-73
2021/01/19 06:03:14;;;;;;;34.47;24.20;;;;;;;;;;5016574;28;20871;-72
2021/01/19 06:05:40;;;;;;;32.22;23.75;;;;;;;;;;5009271;28;20494;-72
2021/01/19 06:08:09;;;;;;;31.75;23.17;;;;;;;;;;5029470;28;20403;-72
2021/01/19 06:10:36;;;;;;;31.73;22.88;;;;;;;;;;5014814;28;20902;-72
2021/01/19 06:13:02;;;;;;;34.00;24.13;;;;;;;;;;5011677;28;20960;-72
2021/01/19 06:15:29;;;;;;;30.53;23.20;;;;;;;;;;5026855;28;20453;-72
2021/01/19 06:17:55;;;;;;;33.92;23.40;;;;;;;;;;5029372;28;20478;-72
2021/01/19 06:20:20;;;;;;;28.58;21.77;;;-2.90;99.90;;;;;;5025242;28;20423;-75
2021/01/19 06:22:47;;;;;;;29.13;20.27;;;;;;;;;;5032784;28;20456;-72
2021/01/19 06:25:14;;;;;;;29.45;20.88;;;;;;;;;;5031977;28;20410;-72
2021/01/19 06:27:41;;;;;;;26.77;19.48;;;;;;;;;;5031981;28;20405;-72
2021/01/19 06:30:08;;;;;;;29.38;20.27;;;;;;;;;;5030725;28;20413;-72
2021/01/19 06:32:35;;;;;;;30.88;22.27;;;;;;;;;;5011213;28;20403;-72
2021/01/19 06:35:09;;;;;;;29.35;20.00;;;;;;;;;;5031320;28;20823;-72
2021/01/19 06:37:36;;;;;;;31.38;22.25;;;-4.10;99.90;;;;;;5029124;28;20406;-72
2021/01/19 06:40:05;;;;;;;28.08;20.55;;;-4.30;99.90;;;;;;5030376;28;20415;-72
2021/01/19 06:42:32;;;;;;;29.83;21.95;;;-4.30;99.90;;;;;;5014100;28;20413;-72
2021/01/19 06:45:00;;;;;;;32.42;24.42;;;-4.20;99.90;;;;;;5012105;28;20453;-72
2021/01/19 06:47:26;;;;;;;31.15;23.05;;;-4.20;99.90;;;;;;5029094;28;20759;-72
2021/01/19 06:49:54;;;;;;;28.23;20.73;;;-4.30;99.90;;;;;;5022730;28;20393;-72
2021/01/19 06:52:20;;;;;;;29.88;22.50;;;-4.30;99.90;;;;;;5032257;28;20456;-72
2021/01/19 06:55:20;;;;;;;30.70;22.40;;;-4.20;99.90;;;;;;5011250;28;20405;-73
2021/01/19 06:58:09;;;;;;;31.40;22.50;;;-4.30;99.90;;;;;;5024390;28;20473;-72
2021/01/19 07:00:40;;;;;;;31.47;23.10;;;;;;;;;;4993310;28;20496;-72
2021/01/19 07:03:19;;;;;;;30.67;21.38;;;;;;;;;;5032071;28;20406;-72
2021/01/19 07:05:49;;;;;;;28.95;21.25;;;;;;;;;;5001983;28;20501;-73
2021/01/19 07:08:25;;;;;;;31.07;22.43;;;;;;;;;;5028103;28;20418;-72
2021/01/19 07:10:52;;;;;;;31.40;21.80;;;;;;;;;;5027276;28;20445;-72
2021/01/19 07:13:21;;;;;;;33.57;24.23;;;;;;;;;;5014183;28;20441;-73
2021/01/19 07:16:07;;;;;;;34.10;22.92;;;;;;;;;;5030113;28;20403;-72
2021/01/19 07:18:50;;;;;;;32.05;21.40;;;;;;;;;;5025220;28;20858;-72
2021/01/19 07:21:17;;;;;;;36.37;23.00;;;;;;;;;;5005344;28;20407;-72
2021/01/19 07:23:58;;;;;;;32.97;23.52;;;;;;;;;;5014160;28;20407;-72
2021/01/19 07:26:32;;;;;;;30.67;21.83;;;;;;;;;;5028001;28;20418;-73
2021/01/19 07:28:58;;;;;;;32.83;23.00;;;;;;;;;;4997171;28;20421;-72
2021/01/19 07:31:25;;;;;;;36.55;24.00;;;;;;;;;;5028497;28;20488;-72
2021/01/19 07:33:53;;;;;;;37.15;26.67;;;;;;;;;;5018214;28;20405;-72
2021/01/19 07:36:20;;;;;;;43.03;29.52;;;;;;;;;;5018269;28;20912;-73
2021/01/19 07:38:47;;;;;;;39.03;28.50;;;;;;;;;;5013992;28;20415;-72
2021/01/19 07:41:13;;;;;;;40.60;29.75;;;;;;;;;;5031563;28;20438;-72
2021/01/19 07:43:40;;;;;;;36.95;26.88;;;;;;;;;;5031757;28;20497;-72
2021/01/19 07:46:06;;;;;;;39.35;28.20;;;;;;;;;;4995410;28;20917;-72
2021/01/19 07:48:33;;;;;;;45.35;32.92;;;;;;;;;;5020850;28;20397;-72
2021/01/19 07:51:12;;;;;;;47.42;33.90;;;;;;;;;;5010823;28;20935;-72
2021/01/19 07:53:46;;;;;;;37.17;28.17;;;;;;;;;;5023193;28;20401;-72
2021/01/19 07:56:22;;;;;;;35.10;25.23;;;-4.30;99.90;;;;;;5013688;28;20749;-73
2021/01/19 07:58:48;;;;;;;36.05;26.15;;;-3.40;99.90;;;;;;5010691;28;20412;-73
2021/01/19 08:01:23;;;;;;;33.22;24.73;;;-3.10;99.90;;;;;;5012628;28;20408;-73
2021/01/19 08:03:50;;;;;;;36.53;24.60;;;-3.00;99.90;;;;;;5031824;28;20393;-72
2021/01/19 08:06:16;;;;;;;39.25;27.48;;;-3.00;99.90;;;;;;5031549;28;20446;-73
2021/01/19 08:08:42;;;;;;;38.53;27.50;;;-2.90;99.90;;;;;;5031496;28;20395;-73
2021/01/19 08:11:19;;;;;;;42.75;30.88;;;-2.90;99.90;;;;;;5012054;28;20451;-72
2021/01/19 08:13:56;;;;;;;53.42;33.80;;;-3.00;99.90;;;;;;5025261;28;20389;-72
2021/01/19 08:16:26;;;;;;;49.87;32.83;;;;;;;;;;5004563;28;20503;-72
2021/01/19 08:19:04;;;;;;;58.58;40.20;;;-2.60;99.90;;;;;;5010376;28;20448;-72
2021/01/19 08:21:33;;;;;;;54.38;37.75;;;;;;;;;;5000159;28;20457;-73
2021/01/19 08:24:00;;;;;;;48.58;34.42;;;;;;;;;;5005014;28;20414;-73
2021/01/19 08:26:27;;;;;;;46.22;30.98;;;;;;;;;;5027759;28;20406;-72
2021/01/19 08:28:53;;;;;;;39.08;28.30;;;;;;;;;;5020826;28;20726;-72
2021/01/19 08:31:19;;;;;;;40.70;29.33;;;;;;;;;;5034976;28;20822;-73
2021/01/19 08:33:50;;;;;;;38.10;28.00;;;;;;;;;;5017271;28;20520;-73
2021/01/19 08:36:19;;;;;;;36.25;27.73;;;;;;;;;;5034700;28;20395;-73
2021/01/19 08:38:47;;;;;;;39.80;29.08;;;;;;;;;;5016980;28;20419;-73
2021/01/19 08:41:16;;;;;;;41.42;28.48;;;;;;;;;;5030118;28;20389;-73
2021/01/19 08:43:50;;;;;;;40.67;29.02;;;;;;;;;;5025918;28;20474;-73
2021/01/19 08:46:16;;;;;;;40.38;29.33;;;;;;;;;;4998905;28;20596;-73
2021/01/19 08:48:43;;;;;;;42.90;30.90;;;;;;;;;;5025155;28;20493;-73
2021/01/19 08:51:19;;;;;;;41.08;31.05;;;;;;;;;;5032272;28;20413;-73
2021/01/19 08:53:47;;;;;;;39.42;30.50;;;;;;;;;;5014990;28;20939;-73
2021/01/19 08:56:16;;;;;;;38.25;30.35;;;;;;;;;;5009263;28;20813;-73
2021/01/19 08:58:43;;;;;;;37.95;28.25;;;;;;;;;;5022989;28;20437;-73
2021/01/19 09:01:09;;;;;;;37.77;28.60;;;;;;;;;;5000779;28;20486;-73
2021/01/19 09:03:35;;;;;;;44.17;29.73;;;;;;;;;;5028093;28;20884;-73
2021/01/19 09:06:01;;;;;;;38.85;27.52;;;;;;;;;;5006200;28;20405;-73
2021/01/19 09:08:29;;;;;;;34.97;26.38;;;;;;;;;;5013072;28;20483;-73
2021/01/19 09:11:02;;;;;;;39.47;28.17;;;0.30;99.90;;;;;;5032778;28;20457;-73
2021/01/19 09:13:30;;;;;;;41.07;29.47;;;0.60;99.90;;;;;;5023690;28;20422;-73
2021/01/19 09:15:56;;;;;;;34.95;26.05;;;0.70;99.90;;;;;;5025217;28;20482;-73
2021/01/19 09:18:24;;;;;;;36.53;27.02;;;0.80;99.90;;;;;;5025219;28;20402;-73
2021/01/19 09:21:00;;;;;;;37.17;26.92;;;0.80;99.90;;;;;;5021525;28;20413;-73
2021/01/19 09:23:32;;;;;;;33.60;25.17;;;0.70;99.90;;;;;;5028161;28;20391;-73
2021/01/19 09:26:04;;;;;;;31.43;23.63;;;0.80;99.90;;;;;;5026352;28;20855;-73
2021/01/19 09:28:31;;;;;;;28.38;22.00;;;1.10;99.90;;;;;;5016349;28;20411;-74
2021/01/19 09:31:08;;;;;;;30.05;23.17;;;1.20;99.90;;;;;;5028715;28;20385;-73
2021/01/19 09:33:35;;;;;;;27.92;22.02;;;1.20;99.90;;;;;;5014155;28;20420;-73
2021/01/19 09:36:05;;;;;;;31.05;23.67;;;;;;;;;;5031342;28;20898;-73
2021/01/19 09:38:32;;;;;;;32.05;21.90;;;1.20;97.90;;;;;;5034006;28;20406;-73
2021/01/19 09:40:58;;;;;;;32.17;22.38;;;1.30;98.10;;;;;;5001973;28;20813;-72
2021/01/19 09:43:24;;;;;;;31.15;21.45;;;;;;;;;;5012680;28;20487;-73
2021/01/19 09:45:51;;;;;;;27.38;20.73;;;;;;;;;;5028126;28;20407;-73
2021/01/19 09:48:19;;;;;;;31.63;24.48;;;;;;;;;;5033689;28;20461;-73
2021/01/19 09:50:45;;;;;;;40.63;28.67;;;;;;;;;;5033630;28;20457;-73
2021/01/19 09:53:11;;;;;;;40.40;31.13;;;;;;;;;;5033158;28;20870;-73
2021/01/19 09:55:38;;;;;;;47.53;33.90;;;;;;;;;;5033559;28;20410;-73
2021/01/19 09:58:05;;;;;;;43.97;34.58;;;;;;;;;;5015409;28;20413;-73
2021/01/19 10:00:32;;;;;;;43.13;34.08;;;;;;;;;;5015439;28;20418;-73
2021/01/19 10:03:08;;;;;;;43.05;34.30;;;;;;;;;;5030526;28;20888;-73
2021/01/19 10:05:34;;;;;;;43.53;33.53;;;;;;;;;;4991668;28;20489;-73
2021/01/19 10:08:00;;;;;;;41.97;34.60;;;;;;;;;;5009457;28;20537;-73
2021/01/19 10:10:33;;;;;;;43.63;34.03;;;;;;;;;;5019815;28;20400;-73
2021/01/19 10:13:03;;;;;;;43.95;34.17;;;;;;;;;;5005193;28;25145;-73
2021/01/19 10:15:29;;;;;;;45.15;32.28;;;3.20;99.90;;;;;;5012347;28;20405;-73
2021/01/19 10:17:57;;;;;;;39.35;29.20;;;;;;;;;;5012356;28;20432;-73
2021/01/19 10:20:29;;;;;;;38.22;28.58;;;3.40;99.90;;;;;;5019059;28;20428;-72
2021/01/19 10:22:57;;;;;;;34.07;27.23;;;;;;;;;;5012549;28;20428;-72
2021/01/19 10:25:27;;;;;;;35.43;27.07;;;;;;;;;;4991200;28;20869;-73
2021/01/19 10:27:56;;;;;;;37.95;29.85;;;;;;;;;;5028315;28;20427;-73
2021/01/19 10:30:26;;;;;;;40.42;30.08;;;;;;;;;;5032058;28;20486;-72
2021/01/19 10:32:52;;;;;;;37.25;29.05;;;3.90;97.90;;;;;;5031676;28;20410;-73
2021/01/19 10:35:28;;;;;;;39.05;31.08;;;3.80;97.00;;;;;;5032082;28;20402;-72
2021/01/19 10:37:56;;;;;;;38.88;30.98;;;4.00;96.70;;;;;;5031563;28;20422;-73
2021/01/19 10:40:22;;;;;;;37.92;29.50;;;;;;;;;;5013875;28;20407;-73
2021/01/19 10:42:49;;;;;;;39.53;29.87;;;;;;;;;;5031079;28;20402;-72
2021/01/19 10:45:26;;;;;;;38.17;30.48;;;;;;;;;;5014037;28;20407;-73
2021/01/19 10:47:53;;;;;;;36.78;29.08;;;;;;;;;;5028053;28;25101;-73
2021/01/19 10:50:20;;;;;;;37.03;29.27;;;;;;;;;;5012000;28;20500;-72
2021/01/19 10:52:54;;;;;;;35.10;28.50;;;;;;;;;;5007531;28;20413;-73
2021/01/19 10:55:20;;;;;;;36.28;27.60;;;;;;;;;;5013891;28;20441;-73
2021/01/19 10:57:46;;;;;;;38.58;28.70;;;4.20;95.70;;;;;;5012956;28;20400;-73
2021/01/19 11:00:13;;;;;;;38.60;30.03;;;;;;;;;;5011603;28;20417;-73
2021/01/19 11:02:40;;;;;;;33.67;26.05;;;;;;;;;;4987553;28;708040;-73
2021/01/19 11:05:06;;;;;;;35.95;28.25;;;;;;;;;;5026130;28;20865;-73
2021/01/19 11:07:33;;;;;;;32.85;25.80;;;;;;;;;;5023453;28;20462;-73
2021/01/19 11:09:59;;;;;;;30.50;23.90;;;;;;;;;;5028749;28;20400;-73
2021/01/19 11:12:25;;;;;;;29.63;22.57;;;;;;;;;;5021906;28;20403;-73
2021/01/19 11:14:51;;;;;;;34.13;26.33;;;;;;;;;;5031860;28;20494;-73
2021/01/19 11:17:17;;;;;;;35.05;27.50;;;;;;;;;;5032012;28;20403;-73
2021/01/19 11:19:44;;;;;;;29.50;23.15;;;;;;;;;;5014332;28;20411;-73
2021/01/19 11:22:10;;;;;;;26.05;20.00;;;;;;;;;;5031903;28;20490;-73
2021/01/19 11:24:36;;;;;;;26.27;20.92;;;;;;;;;;5014382;28;20403;-73
2021/01/19 11:27:02;;;;;;;27.15;20.92;;;;;;;;;;5007068;28;20483;-72
2021/01/19 11:29:29;;;;;;;24.57;19.20;;;;;;;;;;5008319;28;20918;-72
2021/01/19 11:31:55;;;;;;;21.33;17.52;;;;;;;;;;4994754;28;20404;-73
2021/01/19 11:34:21;;;;;;;23.65;18.10;;;;;;;;;;5029699;28;20398;-72
2021/01/19 11:36:48;;;;;;;23.30;18.43;;;;;;;;;;5022092;28;20522;-73
2021/01/19 11:39:14;;;;;;;23.85;19.35;;;;;;;;;;5009014;28;20840;-72
2021/01/19 11:41:42;;;;;;;24.20;20.17;;;;;;;;;;5006214;28;20488;-72
2021/01/19 11:44:10;;;;;;;25.85;20.80;;;;;;;;;;5019359;28;20403;-73
2021/01/19 11:46:38;;;;;;;25.08;21.25;;;;;;;;;;5005017;28;20407;-73
2021/01/19 11:49:05;;;;;;;21.85;17.88;;;;;;;;;;5014409;28;20425;-73
2021/01/19 11:51:32;;;;;;;23.58;17.52;;;;;;;;;;5029803;28;20486;-73
2021/01/19 11:54:01;;;;;;;23.40;18.80;;;5.80;70.00;;;;;;5031650;28;20448;-73
2021/01/19 11:56:32;;;;;;;24.33;19.48;;;5.80;70.10;;;;;;5015699;28;20512;-73
2021/01/19 11:58:58;;;;;;;25.23;20.58;;;6.00;70.50;;;;;;5032327;28;20874;-73
2021/01/19 12:01:24;;;;;;;28.63;21.77;;;6.00;74.50;;;;;;5033287;28;20591;-73
2021/01/19 12:03:49;;;;;;;27.70;21.45;;;6.00;76.00;;;;;;5017015;28;20413;-73
2021/01/19 12:06:15;;;;;;;24.73;20.75;;;5.70;76.20;;;;;;5034103;28;20908;-72
2021/01/19 12:08:42;;;;;;;26.80;20.63;;;5.80;75.80;;;;;;5034085;28;20525;-72
2021/01/19 12:11:09;;;;;;;27.92;23.27;;;5.90;76.30;;;;;;5028092;28;20393;-74
2021/01/19 12:13:36;;;;;;;24.33;19.90;;;5.90;75.10;;;;;;5021909;28;20416;-73
2021/01/19 12:16:03;;;;;;;28.55;21.00;;;5.90;75.50;;;;;;5022822;28;20404;-73
2021/01/19 12:18:29;;;;;;;26.40;19.80;;;6.00;74.60;;;;;;5023253;28;20396;-72
2021/01/19 12:20:54;;;;;;;26.57;19.43;;;6.00;70.10;;;;;;5010443;28;20977;-72
2021/01/19 12:23:20;;;;;;;25.20;19.45;;;6.20;66.90;;;;;;5021744;28;20473;-73
2021/01/19 12:25:46;;;;;;;26.48;21.08;;;6.10;67.60;;;;;;5023765;28;20738;-73
2021/01/19 12:28:13;;;;;;;23.05;17.35;;;;;;;;;;5024200;28;20465;-73
2021/01/19 12:30:41;;;;;;;23.05;18.02;;;;;;;;;;5022776;28;20400;-73
2021/01/19 12:33:07;;;;;;;26.27;21.92;;;;;;;;;;5007338;28;20412;-73
2021/01/19 12:35:33;;;;;;;20.42;15.95;;;;;;;;;;5005536;28;20900;-72
2021/01/19 12:38:00;;;;;;;18.42;15.02;;;;;;;;;;5022614;28;20396;-72
2021/01/19 12:40:26;;;;;;;15.23;12.80;;;;;;;;;;5022297;28;20424;-72
2021/01/19 12:42:52;;;;;;;18.05;11.30;;;;;;;;;;5022915;28;20404;-71
2021/01/19 12:45:19;;;;;;;17.20;13.57;;;;;;;;;;5006687;28;20396;-72
2021/01/19 12:47:49;;;;;;;15.83;12.83;;;;;;;;;;5022252;28;20549;-72
2021/01/19 12:50:15;;;;;;;14.52;10.23;;;7.10;59.80;;;;;;5011875;28;20460;-72
2021/01/19 12:52:40;;;;;;;12.40;9.32;;;7.30;56.00;;;;;;5023940;28;20391;-72
2021/01/19 12:55:07;;;;;;;11.75;9.40;;;7.40;53.70;;;;;;5021212;28;20480;-72
2021/01/19 12:57:33;;;;;;;12.43;8.52;;;;;;;;;;5022138;28;20415;-72
2021/01/19 12:59:59;;;;;;;14.85;10.40;;;;;;;;;;5023557;28;20948;-71
2021/01/19 13:02:26;;;;;;;7.32;5.95;;;;;;;;;;5005504;28;20420;-71
2021/01/19 13:04:53;;;;;;;9.20;7.40;;;;;;;;;;5020581;28;21163;-71
2021/01/19 13:07:22;;;;;;;9.98;7.90;;;7.50;54.80;;;;;;5007302;28;20420;-71
2021/01/19 13:09:49;;;;;;;9.57;7.22;;;6.90;52.70;;;;;;5010423;28;20453;-71
2021/01/19 13:12:16;;;;;;;11.25;7.95;;;6.70;54.10;;;;;;5011291;28;20405;-72
2021/01/19 13:14:41;;;;;;;13.45;9.27;;;6.50;53.60;;;;;;5021559;28;20393;-72
2021/01/19 13:17:07;;;;;;;9.75;8.40;;;6.40;54.60;;;;;;5003711;28;20489;-72
2021/01/19 13:19:34;;;;;;;11.45;8.80;;;6.40;56.20;;;;;;5021517;28;20794;-72
2021/01/19 13:22:00;;;;;;;13.18;10.18;;;6.70;56.30;;;;;;5008875;28;20495;-71
2021/01/19 13:24:26;;;;;;;11.00;8.82;;;6.80;55.90;;;;;;5008697;28;20837;-71
2021/01/19 13:26:52;;;;;;;16.08;11.23;;;7.00;55.50;;;;;;5021433;28;20412;-71
2021/01/19 13:29:18;;;;;;;10.52;8.95;;;7.10;55.00;;;;;;5008025;28;20510;-71
2021/01/19 13:31:44;;;;;;;46.42;30.02;;;7.30;55.00;;;;;;5021558;28;20399;-72
2021/01/19 13:34:09;;;;;;;61.08;41.83;;;7.20;53.70;;;;;;5022015;28;20432;-72
2021/01/19 13:36:36;;;;;;;41.78;29.50;;;6.90;55.00;;;;;;5010181;28;20403;-72
2021/01/19 13:39:02;;;;;;;42.30;31.48;;;6.70;56.70;;;;;;5010578;28;20465;-71
2021/01/19 13:41:28;;;;;;;18.47;15.77;;;6.60;59.10;;;;;;5021603;28;20565;-72
2021/01/19 13:43:54;;;;;;;13.63;10.75;;;6.80;59.20;;;;;;5009261;28;20498;-71
2021/01/19 13:46:20;;;;;;;23.88;20.55;;;7.20;58.60;;;;;;5022169;28;20388;-72
2021/01/19 13:48:46;;;;;;;16.77;13.40;;;7.30;57.80;;;;;;5010725;28;20930;-71